Time;durP1;ratioP1;P1;durP2;ratioP2;P2;SDS_P1;SDS_P2;PMS_P1;PMS_P2;Temp;Humidity;BMP_temperature;BMP_pressure;BME280_temperature;BME280_humidity;BME280_pressure;Samples;Min_cycle;Max_cycle;Signal;HPM_P1;HPM_P2
2023/04/19 00:00:58;;;;;;;6.37;3.53;;;6.10;79.10;;;;;;5015997;28;20472;-52
2023/04/19 00:03:24;;;;;;;23.67;4.10;;;6.10;27.30;;;;;;5012680;28;20464;-51
2023/04/19 00:05:53;;;;;;;5.30;3.80;;;6.10;32.10;;;;;;5016268;28;20886;-53
2023/04/19 00:08:20;;;;;;;4.60;3.13;;;6.00;43.10;;;;;;5012389;28;20490;-52
2023/04/19 00:10:46;;;;;;;6.90;3.23;;;6.00;56.70;;;;;;5014688;28;20512;-52
2023/04/19 00:13:13;;;;;;;3.57;2.97;;;6.00;58.20;;;;;;5013986;28;20497;-52
2023/04/19 00:15:40;;;;;;;3.07;2.77;;;6.00;67.60;;;;;;5016429;28;20529;-52
2023/04/19 00:18:07;;;;;;;6.47;3.73;;;5.90;63.50;;;;;;5012459;28;21000;-51
2023/04/19 00:20:33;;;;;;;4.60;3.67;;;5.90;67.70;;;;;;5014746;28;20970;-51
2023/04/19 00:23:01;;;;;;;5.33;3.47;;;5.80;76.50;;;;;;5014886;28;20470;-51
2023/04/19 00:25:29;;;;;;;7.83;2.97;;;5.70;75.10;;;;;;5011136;28;20524;-52
2023/04/19 00:27:56;;;;;;;3.43;3.13;;;5.70;79.60;;;;;;5011647;28;20518;-52
2023/04/19 00:30:22;;;;;;;6.60;3.30;;;5.60;80.90;;;;;;5008070;28;20525;-51
2023/04/19 00:32:49;;;;;;;4.07;2.70;;;5.50;81.80;;;;;;5011679;28;20491;-52
2023/04/19 00:35:16;;;;;;;3.53;3.23;;;5.40;76.60;;;;;;5014356;28;20995;-52
2023/04/19 00:37:42;;;;;;;6.97;3.17;;;5.30;75.60;;;;;;5020751;28;20486;-52
2023/04/19 00:40:11;;;;;;;3.57;3.37;;;5.30;68.40;;;;;;5030001;28;20507;-52
2023/04/19 00:42:37;;;;;;;7.30;3.77;;;5.20;71.20;;;;;;5025131;28;20537;-51
2023/04/19 00:45:05;;;;;;;3.40;3.10;;;5.20;62.30;;;;;;5019131;28;21023;-53
2023/04/19 00:47:32;;;;;;;4.17;3.53;;;5.10;63.60;;;;;;5017741;28;20522;-52
2023/04/19 00:49:59;;;;;;;7.30;3.70;;;5.00;59.30;;;;;;5014543;28;20504;-51
2023/04/19 00:52:25;;;;;;;3.73;3.20;;;4.90;53.40;;;;;;5029433;28;20536;-51
2023/04/19 00:54:52;;;;;;;6.70;3.03;;;4.90;48.40;;;;;;5029408;28;20889;-52
2023/04/19 00:57:21;;;;;;;6.10;3.30;;;4.80;46.30;;;;;;5016798;28;21329;-51
2023/04/19 00:59:48;;;;;;;5.73;4.00;;;4.70;48.40;;;;;;5011239;28;20477;-51
2023/04/19 01:02:14;;;;;;;7.00;3.50;;;4.70;43.10;;;;;;5017460;28;20839;-52
2023/04/19 01:04:41;;;;;;;4.80;3.40;;;4.70;41.80;;;;;;5016594;28;20519;-51
2023/04/19 01:07:08;;;;;;;7.30;3.50;;;4.60;41.80;;;;;;5019730;28;20465;-53
2023/04/19 01:09:35;;;;;;;5.53;3.23;;;4.60;39.10;;;;;;5033763;28;20815;-51
2023/04/19 01:12:02;;;;;;;3.60;3.10;;;4.50;35.30;;;;;;5033792;28;20468;-52
2023/04/19 01:14:30;;;;;;;5.47;3.47;;;4.50;37.10;;;;;;5025629;28;20940;-52
2023/04/19 01:16:57;;;;;;;7.17;3.73;;;4.50;31.40;;;;;;5015354;28;20868;-53
2023/04/19 01:19:23;;;;;;;3.50;3.20;;;4.40;34.40;;;;;;5001488;28;20521;-52
2023/04/19 01:21:51;;;;;;;3.30;2.70;;;4.40;25.40;;;;;;5011916;28;20505;-51
2023/04/19 01:24:19;;;;;;;16.47;2.97;;;4.40;28.30;;;;;;5015302;28;20520;-52
2023/04/19 01:26:45;;;;;;;9.07;3.43;;;4.40;27.00;;;;;;5015371;28;20482;-51
2023/04/19 01:29:12;;;;;;;4.03;3.63;;;4.40;21.10;;;;;;5017129;28;20491;-52
2023/04/19 01:31:39;;;;;;;3.53;2.77;;;4.30;21.90;;;;;;5015608;28;20466;-52
2023/04/19 01:34:05;;;;;;;4.70;3.30;;;4.30;99.90;;;;;;5013876;28;21203;-52
2023/04/19 01:36:32;;;;;;;6.20;3.30;;;4.30;93.00;;;;;;5014674;28;20459;-52
2023/04/19 01:38:58;;;;;;;7.10;3.40;;;4.20;93.60;;;;;;5012620;28;20521;-52
2023/04/19 01:41:28;;;;;;;10.00;3.33;;;4.10;99.90;;;;;;5013759;28;20877;-52
2023/04/19 01:43:55;;;;;;;3.90;2.80;;;4.10;99.90;;;;;;5015353;28;20475;-52
2023/04/19 01:46:21;;;;;;;2.63;2.43;;;4.10;99.90;;;;;;5016853;28;20516;-51
2023/04/19 01:48:48;;;;;;;6.80;3.37;;;4.10;99.90;;;;;;5022070;28;20556;-52
2023/04/19 01:51:16;;;;;;;4.00;3.37;;;4.10;99.90;;;;;;5023858;28;20998;-51
2023/04/19 01:53:42;;;;;;;3.80;2.60;;;4.00;99.90;;;;;;5012423;28;20517;-52
2023/04/19 01:56:09;;;;;;;6.80;2.60;;;4.00;99.90;;;;;;5010326;28;20522;-52
2023/04/19 01:58:37;;;;;;;5.40;3.73;;;3.90;99.90;;;;;;5056461;22;20904;-58
2023/04/19 02:01:03;;;;;;;4.57;2.97;;;3.90;99.90;;;;;;5068185;28;20513;-58
2023/04/19 02:03:30;;;;;;;3.63;3.00;;;3.90;99.90;;;;;;5076411;28;21021;-57
2023/04/19 02:05:57;;;;;;;2.90;2.53;;;3.80;99.90;;;;;;5074135;28;20750;-58
2023/04/19 02:08:23;;;;;;;3.77;2.47;;;3.80;99.90;;;;;;5069883;28;20483;-58
2023/04/19 02:10:50;;;;;;;3.33;2.70;;;3.80;99.90;;;;;;5062296;28;20461;-58
2023/04/19 02:13:16;;;;;;;5.60;2.87;;;3.70;99.90;;;;;;5061206;28;20559;-58
2023/04/19 02:15:44;;;;;;;3.47;2.53;;;3.70;99.90;;;;;;5059149;28;21022;-58
2023/04/19 02:18:12;;;;;;;3.10;2.70;;;3.70;99.90;;;;;;5069088;28;20825;-58
2023/04/19 02:20:38;;;;;;;6.20;2.73;;;3.70;99.90;;;;;;5067285;28;20458;-58
2023/04/19 02:23:05;;;;;;;6.20;2.60;;;3.60;99.90;;;;;;5067661;28;20464;-58
2023/04/19 02:25:32;;;;;;;3.83;2.70;;;3.60;99.90;;;;;;5064430;28;20476;-58
2023/04/19 02:27:58;;;;;;;2.83;1.97;;;3.60;99.90;;;;;;5062574;28;20529;-57
2023/04/19 02:30:25;;;;;;;3.23;2.67;;;3.50;99.90;;;;;;5069459;28;20529;-58
2023/04/19 02:32:53;;;;;;;4.10;2.13;;;3.50;99.90;;;;;;5067658;28;20521;-57
2023/04/19 02:35:20;;;;;;;2.50;2.30;;;3.40;99.90;;;;;;5070242;28;20840;-58
2023/04/19 02:37:47;;;;;;;10.80;2.60;;;3.40;99.90;;;;;;5071681;28;20539;-57
2023/04/19 02:40:13;;;;;;;3.63;2.23;;;3.30;99.90;;;;;;5063664;28;20463;-57
2023/04/19 02:42:40;;;;;;;8.90;2.43;;;3.30;99.90;;;;;;5068747;28;20490;-58
2023/04/19 02:45:08;;;;;;;2.83;2.43;;;3.30;99.90;;;;;;5068692;28;20546;-60
2023/04/19 02:47:34;;;;;;;4.30;2.40;;;3.20;99.90;;;;;;5060801;28;20892;-57
2023/04/19 02:50:02;;;;;;;3.67;2.57;;;3.20;99.90;;;;;;5068204;28;20521;-58
2023/04/19 02:52:29;;;;;;;4.03;2.27;;;3.20;89.60;;;;;;5060519;28;20463;-57
2023/04/19 02:54:55;;;;;;;3.10;2.80;;;3.30;86.60;;;;;;5066499;28;20958;-58
2023/04/19 02:57:22;;;;;;;8.67;3.50;;;3.20;82.70;;;;;;5071351;28;20464;-58
2023/04/19 02:59:49;;;;;;;4.57;2.43;;;3.20;64.60;;;;;;5058941;28;20531;-58
2023/04/19 03:02:15;;;;;;;2.90;2.00;;;3.20;62.10;;;;;;5071564;28;20461;-58
2023/04/19 03:04:43;;;;;;;3.77;2.87;;;3.20;59.50;;;;;;5071578;28;20565;-57
2023/04/19 03:07:10;;;;;;;2.63;2.30;;;3.10;53.80;;;;;;5065837;28;20459;-58
2023/04/19 03:09:37;;;;;;;2.77;2.33;;;3.10;46.50;;;;;;5070224;28;20538;-57
2023/04/19 03:12:04;;;;;;;5.07;2.07;;;3.10;51.70;;;;;;5071684;28;20459;-58
2023/04/19 03:14:32;;;;;;;7.70;2.53;;;3.10;42.50;;;;;;5069773;28;20912;-58
2023/04/19 03:16:59;;;;;;;3.20;2.50;;;3.00;42.60;;;;;;5068794;28;20452;-59
2023/04/19 03:19:25;;;;;;;3.33;3.03;;;2.90;39.30;;;;;;5066569;28;20480;-58
2023/04/19 03:21:52;;;;;;;3.07;2.67;;;2.90;30.20;;;;;;5068809;28;20835;-58
2023/04/19 03:24:20;;;;;;;2.83;2.63;;;2.90;99.90;;;;;;5072093;28;20448;-58
2023/04/19 03:26:46;;;;;;;2.63;2.13;;;2.90;99.90;;;;;;5057431;28;21251;-58
2023/04/19 03:29:14;;;;;;;2.30;2.20;;;2.80;99.90;;;;;;5052772;28;20844;-58
2023/04/19 03:31:40;;;;;;;2.73;2.10;;;2.90;99.90;;;;;;5052898;28;20532;-58
2023/04/19 03:34:07;;;;;;;3.90;2.30;;;2.90;99.90;;;;;;5062344;28;20467;-58
2023/04/19 03:36:33;;;;;;;2.83;2.63;;;2.90;99.90;;;;;;5070572;28;20493;-59
2023/04/19 03:39:00;;;;;;;4.70;2.70;;;2.90;99.90;;;;;;5072768;28;20492;-58
2023/04/19 03:41:28;;;;;;;3.30;2.67;;;2.80;99.90;;;;;;5060940;28;20456;-58
2023/04/19 03:43:54;;;;;;;2.40;2.20;;;2.90;99.90;;;;;;5067219;28;20455;-58
2023/04/19 03:46:21;;;;;;;4.40;2.90;;;2.80;99.90;;;;;;5060183;28;20503;-59
2023/04/19 03:48:48;;;;;;;2.63;2.10;;;2.90;99.90;;;;;;5068462;28;20479;-57
2023/04/19 03:51:14;;;;;;;6.33;2.70;;;2.90;99.90;;;;;;5067097;28;20489;-58
2023/04/19 03:53:41;;;;;;;6.00;2.80;;;3.00;99.90;;;;;;5062819;28;20961;-57
2023/04/19 03:56:08;;;;;;;5.97;3.37;;;2.90;99.90;;;;;;5065277;28;20902;-58
2023/04/19 03:58:36;;;;;;;3.03;2.30;;;2.80;99.90;;;;;;5064078;28;20487;-58
2023/04/19 04:01:04;;;;;;;2.77;2.47;;;2.90;99.90;;;;;;5066981;28;20843;-58
2023/04/19 04:03:31;;;;;;;5.50;2.77;;;2.80;99.90;;;;;;5068696;28;20564;-58
2023/04/19 04:05:58;;;;;;;2.70;2.43;;;2.70;99.90;;;;;;5066893;28;20487;-57
2023/04/19 04:08:24;;;;;;;6.87;2.73;;;2.70;99.90;;;;;;5069518;28;20484;-55
2023/04/19 04:10:51;;;;;;;3.67;2.17;;;2.60;99.90;;;;;;5061119;28;20522;-58
2023/04/19 04:13:17;;;;;;;4.67;2.47;;;2.60;99.90;;;;;;5067253;28;20458;-58
2023/04/19 04:15:45;;;;;;;7.43;2.83;;;2.60;99.90;;;;;;5061552;28;20460;-58
2023/04/19 04:18:12;;;;;;;2.40;2.17;;;2.60;99.90;;;;;;5058660;28;20878;-57
2023/04/19 04:20:39;;;;;;;2.73;2.47;;;2.60;99.90;;;;;;5063272;28;20473;-59
2023/04/19 04:23:06;;;;;;;3.60;2.53;;;2.60;99.90;;;;;;5069085;28;20464;-60
2023/04/19 04:25:36;;;;;;;4.63;2.60;;;2.60;99.90;;;;;;5067271;28;20530;-60
2023/04/19 04:28:02;;;;;;;3.37;2.70;;;2.60;99.90;;;;;;5065193;28;20506;-59
2023/04/19 04:30:29;;;;;;;2.30;2.20;;;2.60;99.90;;;;;;5068576;28;20513;-59
2023/04/19 04:32:57;;;;;;;4.90;2.70;;;2.60;99.90;;;;;;5068499;28;20842;-59
2023/04/19 04:35:24;;;;;;;2.50;2.17;;;2.60;99.90;;;;;;5068386;28;20456;-61
2023/04/19 04:37:52;;;;;;;3.73;2.73;;;2.60;99.90;;;;;;5071414;28;20463;-58
2023/04/19 04:40:20;;;;;;;4.50;2.27;;;2.70;99.90;;;;;;5069602;28;20545;-59
2023/04/19 04:42:46;;;;;;;4.07;2.90;;;2.70;99.90;;;;;;5063851;28;20460;-59
2023/04/19 04:45:16;;;;;;;6.80;2.70;;;2.80;99.90;;;;;;5065601;28;20484;-59
2023/04/19 04:47:45;;;;;;;2.90;2.23;;;2.80;99.90;;;;;;5067780;28;20466;-58
2023/04/19 04:50:12;;;;;;;5.93;3.00;;;2.90;99.90;;;;;;5066868;28;20474;-59
2023/04/19 04:52:39;;;;;;;6.40;2.40;;;3.00;99.90;;;;;;5059803;28;21295;-59
2023/04/19 04:55:07;;;;;;;3.10;2.80;;;3.10;99.90;;;;;;5066678;28;20909;-59
2023/04/19 04:57:34;;;;;;;6.17;3.47;;;3.10;99.90;;;;;;5062967;28;20998;-59
2023/04/19 05:00:00;;;;;;;3.97;2.00;;;3.20;99.90;;;;;;5063340;28;20498;-59
2023/04/19 05:02:27;;;;;;;2.43;2.23;;;3.20;99.90;;;;;;5066547;28;20494;-59
2023/04/19 05:04:54;;;;;;;2.60;2.40;;;3.30;99.90;;;;;;5071290;28;20453;-59
2023/04/19 05:07:21;;;;;;;2.93;2.30;;;3.40;99.90;;;;;;5067928;28;20487;-53
2023/04/19 05:09:48;;;;;;;4.93;2.70;;;3.40;99.90;;;;;;5061391;28;20841;-53
2023/04/19 05:12:15;;;;;;;2.57;2.33;;;3.50;99.90;;;;;;5069024;28;20497;-53
2023/04/19 05:14:41;;;;;;;5.00;2.30;;;3.60;99.90;;;;;;5067989;28;20470;-60
2023/04/19 05:17:08;;;;;;;2.33;2.10;;;3.70;99.90;;;;;;5070721;28;20509;-51
2023/04/19 05:19:35;;;;;;;9.53;2.10;;;3.80;99.90;;;;;;5069460;28;20464;-49
2023/04/19 05:22:01;;;;;;;8.80;2.97;;;3.80;99.90;;;;;;5064785;28;20465;-50
2023/04/19 05:24:29;;;;;;;2.17;2.07;;;3.90;99.90;;;;;;5069183;28;20524;-59
2023/04/19 05:26:56;;;;;;;2.33;1.97;;;4.00;99.90;;;;;;5070177;28;21074;-58
2023/04/19 05:29:22;;;;;;;3.23;2.13;;;4.10;99.90;;;;;;5065928;28;20569;-59
2023/04/19 05:31:49;;;;;;;2.00;1.90;;;4.20;99.90;;;;;;5063673;28;20465;-59
2023/04/19 05:34:15;;;;;;;7.30;2.80;;;4.30;99.90;;;;;;5067115;28;20513;-59
2023/04/19 05:36:42;;;;;;;3.73;2.17;;;4.40;99.90;;;;;;5061899;28;20489;-59
2023/04/19 05:39:09;;;;;;;5.40;2.77;;;4.40;99.90;;;;;;5061642;28;21055;-60
2023/04/19 05:41:37;;;;;;;2.73;2.07;;;4.60;99.90;;;;;;5071445;28;20483;-58
2023/04/19 05:44:03;;;;;;;4.30;2.23;;;4.60;99.90;;;;;;5058727;28;20518;-58
2023/04/19 05:46:30;;;;;;;3.07;2.17;;;4.70;99.90;;;;;;5067303;28;20588;-59
2023/04/19 05:48:57;;;;;;;4.53;2.47;;;4.70;23.60;;;;;;5058422;28;20571;-59
2023/04/19 05:51:23;;;;;;;5.07;2.23;;;4.80;29.00;;;;;;5059733;28;20960;-59
2023/04/19 05:53:50;;;;;;;5.73;2.10;;;4.90;24.60;;;;;;5060193;28;20467;-60
2023/04/19 05:56:16;;;;;;;5.07;2.03;;;5.00;31.40;;;;;;5071298;28;20467;-52
2023/04/19 05:58:44;;;;;;;2.77;2.07;;;5.10;39.80;;;;;;5068442;28;20487;-53
2023/04/19 06:01:11;;;;;;;3.70;2.57;;;5.20;51.10;;;;;;5073102;28;20509;-53
2023/04/19 06:03:38;;;;;;;3.13;2.10;;;5.30;50.60;;;;;;5066279;28;20492;-53
2023/04/19 06:06:04;;;;;;;6.17;2.60;;;5.30;63.10;;;;;;5074203;28;20480;-53
2023/04/19 06:08:31;;;;;;;2.00;1.87;;;5.50;62.10;;;;;;5070634;28;20482;-53
2023/04/19 06:10:59;;;;;;;3.83;1.90;;;5.50;76.70;;;;;;5068928;28;20473;-53
2023/04/19 06:13:25;;;;;;;6.63;2.37;;;5.70;71.00;;;;;;5066523;28;20521;-52
2023/04/19 06:15:53;;;;;;;4.00;2.10;;;6.10;76.40;;;;;;5055849;28;20521;-53
2023/04/19 06:18:20;;;;;;;2.97;1.80;;;6.20;99.90;;;;;;5068695;28;20525;-52
2023/04/19 06:20:46;;;;;;;3.23;2.00;;;6.30;99.90;;;;;;5060966;28;20836;-53
2023/04/19 06:23:13;;;;;;;2.20;1.73;;;6.40;99.90;;;;;;5066251;28;20468;-52
2023/04/19 06:25:40;;;;;;;6.10;2.43;;;6.50;99.90;;;;;;5069588;28;20502;-53
2023/04/19 06:28:07;;;;;;;3.67;2.00;;;6.60;99.90;;;;;;5061845;28;20481;-51
2023/04/19 06:30:33;;;;;;;2.20;1.97;;;6.80;99.90;;;;;;5067302;28;20468;-53
2023/04/19 06:33:01;;;;;;;3.53;1.73;;;7.10;99.90;;;;;;5071559;28;20467;-53
2023/04/19 06:35:28;;;;;;;5.40;2.00;;;7.00;99.90;;;;;;5066426;28;20847;-53
2023/04/19 06:37:54;;;;;;;10.70;2.27;;;7.30;99.90;;;;;;5073005;28;20569;-53
2023/04/19 06:40:21;;;;;;;5.40;2.03;;;7.30;99.90;;;;;;5070959;28;20448;-53
2023/04/19 06:42:48;;;;;;;4.70;1.97;;;7.20;99.90;;;;;;5066684;28;20972;-52
2023/04/19 06:45:15;;;;;;;4.67;2.20;;;7.30;99.90;;;;;;5062496;28;20930;-52
2023/04/19 06:47:41;;;;;;;2.40;2.17;;;7.60;99.90;;;;;;5065951;28;20511;-52
2023/04/19 06:50:10;;;;;;;1.90;1.80;;;7.90;99.90;;;;;;5060539;28;20510;-52
2023/04/19 06:52:37;;;;;;;5.13;2.30;;;8.40;99.90;;;;;;5070290;28;21022;-53
2023/04/19 06:55:04;;;;;;;5.90;2.10;;;8.40;51.50;;;;;;5069267;28;20460;-53
2023/04/19 06:57:31;;;;;;;3.27;2.00;;;8.50;47.10;;;;;;5064875;28;20459;-53
2023/04/19 06:59:57;;;;;;;3.07;1.97;;;8.60;55.50;;;;;;5070663;28;20472;-53
2023/04/19 07:02:24;;;;;;;6.53;2.30;;;8.60;74.50;;;;;;5070998;28;20444;-53
2023/04/19 07:04:51;;;;;;;1.90;1.80;;;8.80;74.60;;;;;;5071106;28;20511;-53
2023/04/19 07:07:19;;;;;;;11.53;2.20;;;8.30;88.10;;;;;;5064354;28;20487;-52
2023/04/19 07:09:45;;;;;;;4.57;2.30;;;8.40;82.20;;;;;;5071517;28;20864;-52
2023/04/19 07:12:12;;;;;;;4.77;1.97;;;8.70;86.60;;;;;;5060967;28;20521;-54
2023/04/19 07:14:38;;;;;;;3.37;1.90;;;9.00;84.20;;;;;;5072710;28;20449;-53
2023/04/19 07:17:05;;;;;;;2.50;2.27;;;9.00;99.90;;;;;;5066995;28;20887;-53
2023/04/19 07:19:32;;;;;;;5.30;2.20;;;9.10;99.90;;;;;;5066773;28;20636;-53
2023/04/19 07:21:58;;;;;;;2.70;1.87;;;9.40;99.90;;;;;;5064390;28;20449;-53
2023/04/19 07:24:28;;;;;;;9.90;2.67;;;9.50;99.90;;;;;;5067819;28;20560;-53
2023/04/19 07:26:55;;;;;;;3.63;2.40;;;9.40;99.90;;;;;;5070481;28;20897;-54
2023/04/19 07:29:21;;;;;;;4.93;2.50;;;9.60;99.90;;;;;;5072650;28;20470;-53
2023/04/19 07:31:48;;;;;;;4.77;2.23;;;9.50;99.90;;;;;;5066543;28;20516;-53
2023/04/19 07:34:14;;;;;;;3.80;2.30;;;9.40;99.90;;;;;;5069145;28;20465;-54
2023/04/19 07:36:41;;;;;;;6.63;2.40;;;9.50;99.90;;;;;;5067429;28;21125;-53
2023/04/19 07:39:08;;;;;;;5.20;2.17;;;9.80;99.90;;;;;;5076950;28;20514;-53
2023/04/19 07:41:36;;;;;;;3.60;2.03;;;9.80;99.90;;;;;;5074660;28;20944;-53
2023/04/19 07:44:02;;;;;;;3.20;2.43;;;10.10;99.90;;;;;;5070258;28;20462;-53
2023/04/19 07:46:29;;;;;;;6.73;2.27;;;10.10;99.90;;;;;;5067407;28;20487;-53
2023/04/19 07:48:55;;;;;;;2.03;1.80;;;10.20;99.90;;;;;;5067636;28;20484;-52
2023/04/19 07:51:23;;;;;;;5.43;2.03;;;10.40;99.90;;;;;;5064449;28;20548;-53
2023/04/19 07:53:50;;;;;;;6.70;3.00;;;10.60;99.90;;;;;;5066725;28;20484;-54
2023/04/19 07:56:18;;;;;;;2.87;2.17;;;10.90;99.90;;;;;;5065893;28;20460;-53
2023/04/19 07:58:46;;;;;;;1.90;1.80;;;11.00;99.90;;;;;;5067096;22;20579;-51
2023/04/19 08:01:13;;;;;;;6.30;2.27;;;11.30;99.90;;;;;;5050438;28;20514;-52
2023/04/19 08:03:40;;;;;;;8.60;3.87;;;11.20;99.90;;;;;;5043459;28;20471;-52
2023/04/19 08:06:07;;;;;;;7.77;2.37;;;11.10;99.90;;;;;;5049389;28;20495;-51
2023/04/19 08:08:34;;;;;;;2.93;2.13;;;11.60;99.90;;;;;;5050542;28;20831;-52
2023/04/19 08:11:02;;;;;;;5.80;2.67;;;11.60;99.90;;;;;;5051286;28;20503;-51
2023/04/19 08:13:28;;;;;;;3.40;2.10;;;11.60;99.90;;;;;;5050786;28;20500;-52
2023/04/19 08:15:56;;;;;;;2.90;2.57;;;11.30;99.90;;;;;;5057575;28;20539;-51
2023/04/19 08:18:23;;;;;;;5.83;2.20;;;11.30;99.90;;;;;;5050136;28;20475;-53
2023/04/19 08:20:51;;;;;;;2.50;2.40;;;11.80;99.90;;;;;;5049418;28;20465;-51
2023/04/19 08:23:18;;;;;;;3.90;2.37;;;11.80;99.90;;;;;;5051009;28;20469;-51
2023/04/19 08:25:44;;;;;;;6.27;2.07;;;12.10;99.90;;;;;;5053324;28;20545;-51
2023/04/19 08:28:11;;;;;;;2.80;1.90;;;12.20;99.90;;;;;;5052800;28;21148;-51
2023/04/19 08:30:38;;;;;;;5.50;2.77;;;12.20;99.90;;;;;;5050625;28;20461;-51
2023/04/19 08:33:06;;;;;;;4.43;2.83;;;12.30;99.90;;;;;;5049360;28;20461;-50
2023/04/19 08:35:34;;;;;;;4.90;2.10;;;12.30;99.90;;;;;;5051046;28;20957;-51
2023/04/19 08:38:01;;;;;;;3.97;2.60;;;12.20;99.90;;;;;;5053138;28;20464;-51
2023/04/19 08:40:29;;;;;;;4.70;2.50;;;11.80;99.90;;;;;;5049370;28;20547;-51
2023/04/19 08:42:57;;;;;;;2.10;1.90;;;12.10;99.90;;;;;;5051412;28;20445;-51
2023/04/19 08:45:27;;;;;;;4.13;2.60;;;12.40;99.90;;;;;;5049487;28;20491;-51
2023/04/19 08:47:54;;;;;;;12.63;2.70;;;13.10;99.90;;;;;;5055866;28;20527;-51
2023/04/19 08:50:23;;;;;;;7.03;2.43;;;13.50;99.90;;;;;;5050366;28;20492;-51
2023/04/19 08:52:50;;;;;;;11.80;2.40;;;12.50;99.90;;;;;;5049222;28;20511;-52
2023/04/19 08:55:17;;;;;;;3.70;2.70;;;12.70;99.90;;;;;;5050195;28;20449;-52
2023/04/19 08:57:44;;;;;;;5.03;2.30;;;13.20;99.90;;;;;;5053320;28;21187;-51
2023/04/19 09:00:11;;;;;;;3.20;2.00;;;12.40;99.90;;;;;;5049576;28;20493;-52
2023/04/19 09:02:47;;;;;;;5.73;3.10;;;12.00;99.90;;;;;;5045308;28;20930;-51
2023/04/19 09:05:15;;;;;;;9.33;2.70;;;11.70;99.90;;;;;;5045314;28;20460;-51
2023/04/19 09:07:43;;;;;;;4.20;2.40;;;11.60;99.90;;;;;;5047408;28;20485;-52
2023/04/19 09:10:11;;;;;;;11.93;2.70;;;11.20;99.90;;;;;;5056980;28;20483;-52
2023/04/19 09:12:39;;;;;;;2.63;2.37;;;11.70;99.90;;;;;;5053494;28;20464;-52
2023/04/19 09:15:08;;;;;;;3.37;2.60;;;11.80;99.90;;;;;;5050036;28;20931;-51
2023/04/19 09:17:35;;;;;;;4.40;2.23;;;12.80;99.90;;;;;;5060976;28;20575;-52
2023/04/19 09:20:03;;;;;;;2.70;2.50;;;13.80;99.90;;;;;;5050982;28;20493;-51
2023/04/19 09:22:30;;;;;;;6.57;2.73;;;14.70;99.90;;;;;;5050840;28;20952;-52
2023/04/19 09:24:59;;;;;;;2.63;2.40;;;15.00;99.90;;;;;;5050386;28;20465;-51
2023/04/19 09:27:28;;;;;;;9.27;2.20;;;14.50;99.90;;;;;;5055092;28;20502;-52
2023/04/19 09:29:55;;;;;;;3.70;2.53;;;14.80;99.90;;;;;;5052439;28;20477;-52
2023/04/19 09:32:22;;;;;;;5.20;3.00;;;15.00;99.90;;;;;;5051835;28;20464;-52
2023/04/19 09:34:54;;;;;;;6.00;3.03;;;14.70;99.90;;;;;;5053513;28;20531;-51
2023/04/19 09:37:21;;;;;;;9.53;3.03;;;13.90;99.90;;;;;;5050686;28;20465;-51
2023/04/19 09:39:48;;;;;;;9.13;2.53;;;14.20;99.90;;;;;;5052739;28;20492;-51
2023/04/19 09:42:17;;;;;;;3.60;2.57;;;14.00;99.90;;;;;;5052170;28;20514;-52
2023/04/19 09:44:55;;;;;;;2.97;2.37;;;15.40;99.90;;;;;;5051400;28;20457;-51
2023/04/19 09:47:23;;;;;;;4.30;2.27;;;16.00;99.90;;;;;;5053587;28;20511;-51
2023/04/19 09:50:04;;;;;;;6.40;2.43;;;15.30;99.90;;;;;;5050989;28;20480;-51
2023/04/19 09:52:32;;;;;;;5.70;2.70;;;16.20;99.90;;;;;;5051170;28;20469;-52
2023/04/19 09:55:01;;;;;;;3.53;2.07;;;16.90;99.90;;;;;;5050411;28;20529;-51
2023/04/19 09:57:29;;;;;;;3.80;2.60;;;16.90;99.90;;;;;;5050510;28;20461;-52
2023/04/19 09:59:55;;;;;;;8.60;3.27;;;16.10;99.90;;;;;;5049376;28;20490;-51
2023/04/19 10:02:24;;;;;;;16.10;3.67;;;16.20;99.90;;;;;;5048660;28;20462;-53
2023/04/19 10:04:51;;;;;;;6.50;2.70;;;15.50;99.90;;;;;;5050831;28;20944;-52
2023/04/19 10:07:18;;;;;;;4.20;2.50;;;16.70;99.90;;;;;;5051961;28;20998;-53
2023/04/19 10:09:46;;;;;;;6.80;3.10;;;17.00;99.90;;;;;;5046020;28;20481;-51
2023/04/19 10:12:15;;;;;;;3.03;2.23;;;17.90;99.90;;;;;;5051624;28;20504;-52
2023/04/19 10:14:43;;;;;;;4.20;2.30;;;17.00;99.90;;;;;;5049648;28;20454;-51
2023/04/19 10:17:11;;;;;;;5.43;2.17;;;16.90;99.90;;;;;;5050946;28;20923;-52
2023/04/19 10:19:40;;;;;;;3.90;2.63;;;17.00;99.90;;;;;;5051730;28;20477;-53
2023/04/19 10:22:07;;;;;;;12.87;2.57;;;17.40;99.90;;;;;;5049543;28;20490;-52
2023/04/19 10:24:34;;;;;;;3.30;2.83;;;17.10;99.90;;;;;;5050036;28;20466;-53
2023/04/19 10:27:11;;;;;;;3.23;2.60;;;17.20;99.90;;;;;;5051112;28;20477;-52
2023/04/19 10:29:59;;;;;;;12.93;2.70;;;17.10;99.90;;;;;;5051725;28;20548;-52
2023/04/19 10:32:27;;;;;;;7.10;3.30;;;16.70;99.90;;;;;;5050717;28;20817;-51
2023/04/19 10:34:54;;;;;;;4.17;3.37;;;15.90;99.90;;;;;;5049619;28;20529;-52
2023/04/19 10:37:26;;;;;;;6.43;3.20;;;16.20;99.90;;;;;;5052302;28;20487;-51
2023/04/19 10:39:52;;;;;;;5.90;2.63;;;15.80;99.90;;;;;;5050744;28;20477;-52
2023/04/19 10:42:19;;;;;;;5.90;3.53;;;15.30;99.90;;;;;;5048554;28;21020;-52
2023/04/19 10:45:19;;;;;;;9.83;3.90;;;16.00;99.90;;;;;;5049633;28;20630;-52
2023/04/19 10:47:47;;;;;;;5.07;3.00;;;15.50;99.90;;;;;;5050210;28;20539;-51
2023/04/19 10:50:16;;;;;;;6.23;4.50;;;16.30;99.90;;;;;;5046974;28;20890;-52
2023/04/19 10:52:43;;;;;;;22.67;4.87;;;15.70;99.90;;;;;;5050219;28;20465;-52
2023/04/19 10:55:15;;;;;;;7.80;3.70;;;16.70;99.90;;;;;;5049509;28;20466;-52
2023/04/19 10:58:02;;;;;;;11.13;3.50;;;16.90;99.90;;;;;;5049724;28;20504;-52
2023/04/19 11:00:31;;;;;;;11.53;4.67;;;16.50;99.90;;;;;;5048269;28;21028;-52
2023/04/19 11:02:59;;;;;;;14.70;5.33;;;15.70;99.90;;;;;;5049724;28;20749;-51
2023/04/19 11:05:26;;;;;;;11.40;4.30;;;15.40;99.90;;;;;;5051102;28;20473;-51
2023/04/19 11:07:53;;;;;;;7.47;3.40;;;15.00;99.90;;;;;;5048331;28;20494;-51
2023/04/19 11:10:29;;;;;;;16.67;3.37;;;14.50;99.90;;;;;;5048796;28;20508;-51
2023/04/19 11:12:55;;;;;;;7.10;3.20;;;14.20;99.90;;;;;;5050709;28;20461;-51
2023/04/19 11:15:23;;;;;;;4.83;2.83;;;14.40;99.90;;;;;;5048712;28;20460;-51
2023/04/19 11:17:51;;;;;;;7.00;2.60;;;14.40;99.90;;;;;;5050596;28;20512;-52
2023/04/19 11:20:22;;;;;;;12.33;3.80;;;14.40;99.90;;;;;;5051022;28;20509;-52
2023/04/19 11:22:49;;;;;;;7.70;3.33;;;14.40;99.90;;;;;;5047194;28;20454;-51
2023/04/19 11:25:18;;;;;;;6.53;3.10;;;14.20;99.90;;;;;;5049543;28;20525;-51
2023/04/19 11:27:45;;;;;;;16.97;3.50;;;14.00;99.90;;;;;;5051210;28;20478;-51
2023/04/19 11:30:15;;;;;;;13.30;3.27;;;13.90;99.90;;;;;;5047770;28;20477;-52
2023/04/19 11:32:47;;;;;;;6.33;2.73;;;13.90;99.90;;;;;;5049860;28;20508;-54
2023/04/19 11:35:13;;;;;;;4.63;2.87;;;14.40;99.90;;;;;;5049452;28;20462;-55
2023/04/19 11:37:41;;;;;;;7.47;2.67;;;14.40;99.90;;;;;;5046156;28;20455;-54
2023/04/19 11:40:09;;;;;;;11.00;3.20;;;14.30;99.90;;;;;;5050580;28;20477;-53
2023/04/19 11:42:37;;;;;;;20.83;4.23;;;14.10;99.90;;;;;;5046788;28;20469;-55
2023/04/19 11:45:04;;;;;;;8.63;3.10;;;14.40;99.90;;;;;;5049469;28;22430;-55
2023/04/19 11:47:32;;;;;;;7.80;2.83;;;14.20;99.90;;;;;;5049661;28;20478;-54
2023/04/19 11:50:34;;;;;;;7.67;3.20;;;14.00;99.90;;;;;;5051094;28;21049;-55
2023/04/19 11:53:11;;;;;;;9.00;3.17;;;14.50;99.90;;;;;;5043670;28;20544;-53
2023/04/19 11:55:38;;;;;;;6.30;3.90;;;14.10;99.90;;;;;;5045228;28;20454;-54
2023/04/19 11:58:08;;;;;;;13.67;2.90;;;14.00;99.90;;;;;;5047861;28;20847;-54
2023/04/19 12:00:35;;;;;;;6.90;3.30;;;13.40;99.90;;;;;;5047064;28;20454;-55
2023/04/19 12:03:02;;;;;;;6.10;3.33;;;13.80;99.90;;;;;;5049630;28;20454;-53
2023/04/19 12:05:29;;;;;;;5.43;2.70;;;13.90;99.90;;;;;;5050229;28;20461;-53
2023/04/19 12:08:05;;;;;;;6.70;3.17;;;14.00;99.90;;;;;;5049253;28;21016;-55
2023/04/19 12:10:32;;;;;;;9.30;2.83;;;13.50;99.90;;;;;;5047632;28;20464;-55
2023/04/19 12:12:59;;;;;;;4.17;3.77;;;13.80;99.90;;;;;;5050184;28;20951;-53
2023/04/19 12:15:41;;;;;;;6.03;3.10;;;13.80;99.90;;;;;;5046162;28;21144;-55
2023/04/19 12:18:09;;;;;;;9.63;3.37;;;13.30;99.90;;;;;;5053192;28;20489;-50
2023/04/19 12:20:37;;;;;;;6.90;3.40;;;13.50;99.90;;;;;;5048732;28;20457;-50
2023/04/19 12:23:09;;;;;;;6.10;3.67;;;14.10;99.90;;;;;;5050765;28;21077;-51
2023/04/19 12:25:42;;;;;;;4.80;3.60;;;14.80;99.90;;;;;;5053733;28;20468;-52
2023/04/19 12:28:09;;;;;;;6.20;3.37;;;14.90;99.90;;;;;;5049294;28;20487;-54
2023/04/19 12:30:36;;;;;;;7.00;3.33;;;14.40;99.90;;;;;;5048938;28;20469;-55
2023/04/19 12:33:06;;;;;;;11.87;4.60;;;14.60;99.90;;;;;;5048839;28;20472;-50
2023/04/19 12:35:36;;;;;;;8.23;3.63;;;14.60;99.90;;;;;;5065092;28;20464;-52
2023/04/19 12:38:02;;;;;;;4.67;3.63;;;14.80;99.90;;;;;;5052219;28;20492;-52
2023/04/19 12:40:30;;;;;;;5.70;3.27;;;15.10;99.90;;;;;;5051805;28;20464;-51
2023/04/19 12:42:57;;;;;;;4.23;2.50;;;16.10;99.90;;;;;;5048296;28;20841;-53
2023/04/19 12:45:24;;;;;;;3.87;3.47;;;15.60;99.90;;;;;;5047555;28;20466;-51
2023/04/19 12:47:50;;;;;;;6.23;4.00;;;16.20;99.90;;;;;;5042515;28;20516;-51
2023/04/19 12:50:17;;;;;;;4.57;2.77;;;16.20;99.90;;;;;;5049541;28;20482;-52
2023/04/19 12:52:44;;;;;;;25.00;3.40;;;16.80;99.90;;;;;;5047171;28;20462;-52
2023/04/19 12:55:11;;;;;;;13.33;3.50;;;16.70;99.90;;;;;;5045696;28;20779;-52